sensor_id;sensor_type;location;lat;lon;timestamp;pressure;altitude;pressure_sealevel;temperature;humidity
27984;BME280;15317;50.360;8.726;2022-12-04T00:00:41;99438.34;;;0.73;100.00
27984;BME280;15317;50.360;8.726;2022-12-04T00:04:43;99434.06;;;0.56;100.00
27984;BME280;15317;50.360;8.726;2022-12-04T00:08:46;99429.97;;;0.65;100.00
27984;BME280;15317;50.360;8.726;2022-12-04T00:12:50;99424.06;;;0.60;100.00
27984;BME280;15317;50.360;8.726;2022-12-04T00:16:52;99416.91;;;0.60;100.00
27984;BME280;15317;50.360;8.726;2022-12-04T00:20:54;99411.44;;;0.62;100.00
27984;BME280;15317;50.360;8.726;2022-12-04T00:24:56;99419.44;;;0.62;100.00
27984;BME280;15317;50.360;8.726;2022-12-04T00:29:00;99421.00;;;0.66;100.00
27984;BME280;15317;50.360;8.726;2022-12-04T00:33:02;99419.34;;;0.63;100.00
27984;BME280;15317;50.360;8.726;2022-12-04T00:37:04;99430.34;;;0.59;100.00
27984;BME280;15317;50.360;8.726;2022-12-04T00:41:08;99426.81;;;0.58;100.00
27984;BME280;15317;50.360;8.726;2022-12-04T00:45:11;99425.41;;;0.53;100.00
27984;BME280;15317;50.360;8.726;2022-12-04T00:49:13;99421.78;;;0.54;100.00
27984;BME280;15317;50.360;8.726;2022-12-04T00:53:15;99424.34;;;0.55;100.00
27984;BME280;15317;50.360;8.726;2022-12-04T00:57:18;99429.03;;;0.52;100.00
27984;BME280;15317;50.360;8.726;2022-12-04T01:01:22;99432.00;;;0.47;100.00
27984;BME280;15317;50.360;8.726;2022-12-04T01:05:24;99442.41;;;0.52;100.00
27984;BME280;15317;50.360;8.726;2022-12-04T01:09:26;99442.03;;;0.44;100.00
27984;BME280;15317;50.360;8.726;2022-12-04T01:13:28;99436.09;;;0.53;100.00
27984;BME280;15317;50.360;8.726;2022-12-04T01:17:32;99431.63;;;0.53;100.00
27984;BME280;15317;50.360;8.726;2022-12-04T01:21:35;99434.84;;;0.58;100.00
27984;BME280;15317;50.360;8.726;2022-12-04T01:25:37;99426.34;;;0.52;100.00
27984;BME280;15317;50.360;8.726;2022-12-04T01:29:39;99416.84;;;0.48;100.00
27984;BME280;15317;50.360;8.726;2022-12-04T01:33:43;99403.06;;;0.54;100.00
27984;BME280;15317;50.360;8.726;2022-12-04T01:37:45;99397.63;;;0.55;100.00
27984;BME280;15317;50.360;8.726;2022-12-04T01:41:48;99383.91;;;0.47;100.00
27984;BME280;15317;50.360;8.726;2022-12-04T01:45:52;99377.13;;;0.42;100.00
27984;BME280;15317;50.360;8.726;2022-12-04T01:49:57;99386.00;;;0.42;100.00
27984;BME280;15317;50.360;8.726;2022-12-04T01:54:03;99380.78;;;0.41;100.00
27984;BME280;15317;50.360;8.726;2022-12-04T01:58:06;99373.09;;;0.49;100.00
27984;BME280;15317;50.360;8.726;2022-12-04T02:02:12;99379.44;;;0.48;100.00
27984;BME280;15317;50.360;8.726;2022-12-04T02:06:16;99383.06;;;0.47;100.00
27984;BME280;15317;50.360;8.726;2022-12-04T02:10:19;99383.06;;;0.47;100.00
27984;BME280;15317;50.360;8.726;2022-12-04T02:14:31;99390.47;;;0.42;100.00
27984;BME280;15317;50.360;8.726;2022-12-04T02:18:38;99405.78;;;0.39;100.00
27984;BME280;15317;50.360;8.726;2022-12-04T02:22:53;99414.19;;;0.33;100.00
27984;BME280;15317;50.360;8.726;2022-12-04T02:27:03;99408.22;;;0.43;100.00
27984;BME280;15317;50.360;8.726;2022-12-04T02:31:12;99402.81;;;0.44;100.00
27984;BME280;15317;50.360;8.726;2022-12-04T02:35:21;99408.69;;;0.49;100.00
27984;BME280;15317;50.360;8.726;2022-12-04T02:39:30;99409.78;;;0.47;100.00
27984;BME280;15317;50.360;8.726;2022-12-04T02:43:38;99415.31;;;0.44;100.00
27984;BME280;15317;50.360;8.726;2022-12-04T02:47:44;99409.00;;;0.45;100.00
27984;BME280;15317;50.360;8.726;2022-12-04T02:51:48;99405.16;;;0.49;100.00
27984;BME280;15317;50.360;8.726;2022-12-04T02:55:54;99403.75;;;0.43;100.00
27984;BME280;15317;50.360;8.726;2022-12-04T02:59:59;99400.81;;;0.48;100.00
27984;BME280;15317;50.360;8.726;2022-12-04T03:04:06;99401.75;;;0.47;100.00
27984;BME280;15317;50.360;8.726;2022-12-04T03:08:15;99392.03;;;0.46;100.00
27984;BME280;15317;50.360;8.726;2022-12-04T03:12:21;99401.84;;;0.45;100.00
27984;BME280;15317;50.360;8.726;2022-12-04T03:16:29;99396.69;;;0.42;100.00
27984;BME280;15317;50.360;8.726;2022-12-04T03:20:35;99389.13;;;0.49;100.00
27984;BME280;15317;50.360;8.726;2022-12-04T03:24:41;99393.25;;;0.54;100.00
27984;BME280;15317;50.360;8.726;2022-12-04T03:28:51;99391.63;;;0.52;100.00
27984;BME280;15317;50.360;8.726;2022-12-04T03:32:59;99394.28;;;0.52;100.00
27984;BME280;15317;50.360;8.726;2022-12-04T03:37:09;99397.47;;;0.44;100.00
27984;BME280;15317;50.360;8.726;2022-12-04T03:41:19;99393.13;;;0.56;100.00
27984;BME280;15317;50.360;8.726;2022-12-04T03:45:29;99388.94;;;0.52;100.00
27984;BME280;15317;50.360;8.726;2022-12-04T03:49:42;99387.22;;;0.51;100.00
27984;BME280;15317;50.360;8.726;2022-12-04T03:53:51;99384.38;;;0.54;100.00
27984;BME280;15317;50.360;8.726;2022-12-04T03:57:58;99390.94;;;0.48;100.00
27984;BME280;15317;50.360;8.726;2022-12-04T04:02:03;99389.13;;;0.49;100.00
27984;BME280;15317;50.360;8.726;2022-12-04T04:06:12;99379.78;;;0.42;100.00
27984;BME280;15317;50.360;8.726;2022-12-04T04:10:19;99391.63;;;0.52;100.00
27984;BME280;15317;50.360;8.726;2022-12-04T04:14:23;99389.91;;;0.51;100.00
27984;BME280;15317;50.360;8.726;2022-12-04T04:18:46;99396.88;;;0.53;100.00
27984;BME280;15317;50.360;8.726;2022-12-04T04:23:08;99383.06;;;0.47;100.00
27984;BME280;15317;50.360;8.726;2022-12-04T04:27:31;99384.09;;;0.44;100.00
27984;BME280;15317;50.360;8.726;2022-12-04T04:31:37;99380.47;;;0.45;100.00
27984;BME280;15317;50.360;8.726;2022-12-04T04:35:52;99384.78;;;0.48;100.00
27984;BME280;15317;50.360;8.726;2022-12-04T04:40:00;99382.19;;;0.46;100.00
27984;BME280;15317;50.360;8.726;2022-12-04T04:44:13;99374.38;;;0.43;100.00
27984;BME280;15317;50.360;8.726;2022-12-04T04:48:20;99381.75;;;0.39;100.00
27984;BME280;15317;50.360;8.726;2022-12-04T04:52:24;99380.19;;;0.35;100.00
27984;BME280;15317;50.360;8.726;2022-12-04T04:56:26;99377.91;;;0.44;100.00
27984;BME280;15317;50.360;8.726;2022-12-04T05:00:30;99372.78;;;0.41;100.00
27984;BME280;15317;50.360;8.726;2022-12-04T05:04:32;99375.44;;;0.41;100.00
27984;BME280;15317;50.360;8.726;2022-12-04T05:08:34;99376.56;;;0.36;100.00
27984;BME280;15317;50.360;8.726;2022-12-04T05:12:36;99390.16;;;0.33;100.00
27984;BME280;15317;50.360;8.726;2022-12-04T05:16:40;99385.94;;;0.29;100.00
27984;BME280;15317;50.360;8.726;2022-12-04T05:20:42;99387.34;;;0.35;100.00
27984;BME280;15317;50.360;8.726;2022-12-04T05:24:44;99392.59;;;0.36;100.00
27984;BME280;15317;50.360;8.726;2022-12-04T05:28:46;99392.59;;;0.36;100.00
27984;BME280;15317;50.360;8.726;2022-12-04T05:32:49;99394.72;;;0.31;100.00
27984;BME280;15317;50.360;8.726;2022-12-04T05:36:51;99397.19;;;0.34;100.00
27984;BME280;15317;50.360;8.726;2022-12-04T05:40:56;99391.28;;;0.29;100.00
27984;BME280;15317;50.360;8.726;2022-12-04T05:44:58;99387.47;;;0.33;100.00
27984;BME280;15317;50.360;8.726;2022-12-04T05:49:02;99391.97;;;0.33;100.00
27984;BME280;15317;50.360;8.726;2022-12-04T05:53:04;99377.28;;;0.26;100.00
27984;BME280;15317;50.360;8.726;2022-12-04T05:57:06;99376.03;;;0.31;100.00
27984;BME280;15317;50.360;8.726;2022-12-04T06:01:10;99381.06;;;0.22;100.00
27984;BME280;15317;50.360;8.726;2022-12-04T06:05:14;99391.28;;;0.29;100.00
27984;BME280;15317;50.360;8.726;2022-12-04T06:09:16;99379.00;;;0.27;100.00
27984;BME280;15317;50.360;8.726;2022-12-04T06:13:18;99377.38;;;0.24;100.00
27984;BME280;15317;50.360;8.726;2022-12-04T06:17:20;99387.66;;;0.30;100.00
27984;BME280;15317;50.360;8.726;2022-12-04T06:21:26;99387.66;;;0.30;100.00
27984;BME280;15317;50.360;8.726;2022-12-04T06:25:28;99394.25;;;0.25;100.00
27984;BME280;15317;50.360;8.726;2022-12-04T06:29:30;99382.31;;;0.30;100.00
27984;BME280;15317;50.360;8.726;2022-12-04T06:33:33;99391.50;;;0.26;100.00
27984;BME280;15317;50.360;8.726;2022-12-04T06:37:37;99394.91;;;0.28;100.00
27984;BME280;15317;50.360;8.726;2022-12-04T06:41:39;99393.00;;;0.30;100.00
27984;BME280;15317;50.360;8.726;2022-12-04T06:45:41;99389.38;;;0.31;100.00
27984;BME280;15317;50.360;8.726;2022-12-04T06:49:43;99384.44;;;0.25;100.00
27984;BME280;15317;50.360;8.726;2022-12-04T06:53:47;99392.53;;;0.24;100.00
27984;BME280;15317;50.360;8.726;2022-12-04T06:57:50;99389.28;;;0.33;100.00
27984;BME280;15317;50.360;8.726;2022-12-04T07:01:52;99387.56;;;0.32;100.00
27984;BME280;15317;50.360;8.726;2022-12-04T07:05:54;99384.81;;;0.33;100.00
27984;BME280;15317;50.360;8.726;2022-12-04T07:09:57;99382.78;;;0.37;100.00
27984;BME280;15317;50.360;8.726;2022-12-04T07:13:59;99385.84;;;0.31;100.00
27984;BME280;15317;50.360;8.726;2022-12-04T07:18:02;99386.13;;;0.41;100.00
27984;BME280;15317;50.360;8.726;2022-12-04T07:22:05;99381.63;;;0.41;100.00
27984;BME280;15317;50.360;8.726;2022-12-04T07:26:11;99386.69;;;0.46;100.00
27984;BME280;15317;50.360;8.726;2022-12-04T07:30:14;99387.63;;;0.45;100.00
27984;BME280;15317;50.360;8.726;2022-12-04T07:34:16;99387.53;;;0.46;100.00
27984;BME280;15317;50.360;8.726;2022-12-04T07:38:18;99390.84;;;0.50;100.00
27984;BME280;15317;50.360;8.726;2022-12-04T07:42:22;99386.28;;;0.52;100.00
27984;BME280;15317;50.360;8.726;2022-12-04T07:46:26;99377.50;;;0.50;100.00
27984;BME280;15317;50.360;8.726;2022-12-04T07:50:28;99387.31;;;0.49;100.00
27984;BME280;15317;50.360;8.726;2022-12-04T07:54:30;99384.56;;;0.51;100.00
27984;BME280;15317;50.360;8.726;2022-12-04T07:58:34;99387.78;;;0.56;100.00
27984;BME280;15317;50.360;8.726;2022-12-04T08:02:36;99387.38;;;0.62;100.00
27984;BME280;15317;50.360;8.726;2022-12-04T08:06:39;99382.03;;;0.62;100.00
27984;BME280;15317;50.360;8.726;2022-12-04T08:10:41;99390.63;;;0.67;100.00
27984;BME280;15317;50.360;8.726;2022-12-04T08:14:44;99381.94;;;0.63;100.00
27984;BME280;15317;50.360;8.726;2022-12-04T08:18:46;99387.84;;;0.68;100.00
27984;BME280;15317;50.360;8.726;2022-12-04T08:22:48;99391.91;;;0.61;100.00
27984;BME280;15317;50.360;8.726;2022-12-04T08:26:50;99390.22;;;0.73;100.00
27984;BME280;15317;50.360;8.726;2022-12-04T08:30:54;99389.81;;;0.79;100.00
27984;BME280;15317;50.360;8.726;2022-12-04T08:34:56;99389.59;;;0.82;100.00
27984;BME280;15317;50.360;8.726;2022-12-04T08:38:58;99393.59;;;0.89;100.00
27984;BME280;15317;50.360;8.726;2022-12-04T08:43:00;99399.91;;;0.88;100.00
27984;BME280;15317;50.360;8.726;2022-12-04T08:47:03;99396.25;;;0.89;100.00
27984;BME280;15317;50.360;8.726;2022-12-04T08:51:06;99397.78;;;0.93;100.00
27984;BME280;15317;50.360;8.726;2022-12-04T08:55:08;99394.16;;;0.94;100.00
27984;BME280;15317;50.360;8.726;2022-12-04T08:59:11;99397.78;;;0.93;100.00
27984;BME280;15317;50.360;8.726;2022-12-04T09:03:17;99396.19;;;1.03;100.00
27984;BME280;15317;50.360;8.726;2022-12-04T09:07:19;99397.72;;;1.07;100.00
27984;BME280;15317;50.360;8.726;2022-12-04T09:11:23;99400.50;;;1.06;100.00
27984;BME280;15317;50.360;8.726;2022-12-04T09:15:26;99401.44;;;1.05;100.00
27984;BME280;15317;50.360;8.726;2022-12-04T09:19:29;99396.97;;;1.05;100.00
27984;BME280;15317;50.360;8.726;2022-12-04T09:23:32;99378.06;;;1.08;100.00
27984;BME280;15317;50.360;8.726;2022-12-04T09:27:35;99379.63;;;0.98;100.00
27984;BME280;15317;50.360;8.726;2022-12-04T09:31:38;99367.44;;;1.07;100.00
27984;BME280;15317;50.360;8.726;2022-12-04T09:35:41;99363.91;;;1.06;100.00
27984;BME280;15317;50.360;8.726;2022-12-04T09:39:44;99380.28;;;1.02;100.00
27984;BME280;15317;50.360;8.726;2022-12-04T09:43:48;99380.91;;;1.05;100.00
27984;BME280;15317;50.360;8.726;2022-12-04T09:47:55;99378.91;;;1.09;100.00
27984;BME280;15317;50.360;8.726;2022-12-04T09:52:01;99369.63;;;1.14;100.00
27984;BME280;15317;50.360;8.726;2022-12-04T09:56:06;99365.00;;;1.16;100.00
27984;BME280;15317;50.360;8.726;2022-12-04T10:04:14;99369.09;;;1.22;100.00
27984;BME280;15317;50.360;8.726;2022-12-04T10:08:20;99360.56;;;1.30;100.00
27984;BME280;15317;50.360;8.726;2022-12-04T10:12:31;99371.44;;;1.27;100.00
27984;BME280;15317;50.360;8.726;2022-12-04T10:16:44;99372.22;;;1.41;100.00
27984;BME280;15317;50.360;8.726;2022-12-04T10:25:35;99361.72;;;1.51;100.00
27984;BME280;15317;50.360;8.726;2022-12-04T10:29:41;99360.56;;;1.55;100.00
27984;BME280;15317;50.360;8.726;2022-12-04T10:33:46;99370.31;;;1.56;100.00
27984;BME280;15317;50.360;8.726;2022-12-04T10:37:55;99361.09;;;1.60;100.00
27984;BME280;15317;50.360;8.726;2022-12-04T10:42:00;99360.91;;;1.63;100.00
27984;BME280;15317;50.360;8.726;2022-12-04T10:46:06;99341.28;;;1.63;100.00
27984;BME280;15317;50.360;8.726;2022-12-04T10:50:13;99347.81;;;1.71;100.00
27984;BME280;15317;50.360;8.726;2022-12-04T10:54:20;99334.97;;;1.64;100.00
27984;BME280;15317;50.360;8.726;2022-12-04T10:58:24;99327.91;;;1.63;100.00
27984;BME280;15317;50.360;8.726;2022-12-04T11:02:28;99326.63;;;1.68;100.00
27984;BME280;15317;50.360;8.726;2022-12-04T11:06:32;99326.09;;;1.63;100.00
27984;BME280;15317;50.360;8.726;2022-12-04T11:10:36;99317.81;;;1.66;100.00
27984;BME280;15317;50.360;8.726;2022-12-04T11:14:40;99313.13;;;1.70;100.00
27984;BME280;15317;50.360;8.726;2022-12-04T11:18:46;99311.72;;;1.64;100.00
27984;BME280;15317;50.360;8.726;2022-12-04T11:22:51;99307.88;;;1.68;100.00
27984;BME280;15317;50.360;8.726;2022-12-04T11:26:54;99307.66;;;1.71;100.00
27984;BME280;15317;50.360;8.726;2022-12-04T11:31:00;99297.69;;;1.73;100.00
27984;BME280;15317;50.360;8.726;2022-12-04T11:35:10;99275.41;;;1.73;100.00
27984;BME280;15317;50.360;8.726;2022-12-04T11:39:16;99273.59;;;1.73;100.00
27984;BME280;15317;50.360;8.726;2022-12-04T11:43:20;99262.88;;;1.73;100.00
27984;BME280;15317;50.360;8.726;2022-12-04T11:47:25;99262.53;;;1.90;100.00
27984;BME280;15317;50.360;8.726;2022-12-04T11:51:38;99257.91;;;1.92;100.00
27984;BME280;15317;50.360;8.726;2022-12-04T11:55:58;99253.91;;;1.98;100.00
27984;BME280;15317;50.360;8.726;2022-12-04T12:00:10;99247.75;;;1.97;100.00
27984;BME280;15317;50.360;8.726;2022-12-04T12:04:36;99249.66;;;1.95;100.00
27984;BME280;15317;50.360;8.726;2022-12-04T12:08:56;99243.66;;;2.05;100.00
27984;BME280;15317;50.360;8.726;2022-12-04T12:13:07;99232.69;;;2.08;100.00
27984;BME280;15317;50.360;8.726;2022-12-04T12:17:17;99252.00;;;2.00;100.00
27984;BME280;15317;50.360;8.726;2022-12-04T12:21:26;99254.41;;;2.16;100.00
27984;BME280;15317;50.360;8.726;2022-12-04T12:25:31;99260.06;;;2.24;100.00
27984;BME280;15317;50.360;8.726;2022-12-04T12:29:46;99265.69;;;2.08;100.00
27984;BME280;15317;50.360;8.726;2022-12-04T12:33:56;99264.47;;;2.25;100.00
27984;BME280;15317;50.360;8.726;2022-12-04T12:38:05;99271.59;;;2.01;100.00
27984;BME280;15317;50.360;8.726;2022-12-04T12:42:14;99284.78;;;2.04;100.00
27984;BME280;15317;50.360;8.726;2022-12-04T12:46:21;99280.81;;;2.09;100.00
27984;BME280;15317;50.360;8.726;2022-12-04T12:50:30;99284.25;;;2.11;100.00
27984;BME280;15317;50.360;8.726;2022-12-04T12:54:40;99285.91;;;2.12;100.00
27984;BME280;15317;50.360;8.726;2022-12-04T12:58:47;99276.63;;;2.05;100.00
27984;BME280;15317;50.360;8.726;2022-12-04T13:02:56;99287.47;;;2.04;100.00
27984;BME280;15317;50.360;8.726;2022-12-04T13:07:11;99275.91;;;2.03;100.00
27984;BME280;15317;50.360;8.726;2022-12-04T13:11:21;99265.13;;;2.16;100.00
27984;BME280;15317;50.360;8.726;2022-12-04T13:15:29;99271.34;;;2.16;100.00
27984;BME280;15317;50.360;8.726;2022-12-04T13:19:36;99267.81;;;2.16;100.00
27984;BME280;15317;50.360;8.726;2022-12-04T13:23:51;99262.16;;;2.08;100.00
27984;BME280;15317;50.360;8.726;2022-12-04T13:28:05;99251.00;;;2.14;100.00
27984;BME280;15317;50.360;8.726;2022-12-04T13:32:27;99242.94;;;2.14;100.00
27984;BME280;15317;50.360;8.726;2022-12-04T13:36:49;99245.63;;;2.14;100.00
27984;BME280;15317;50.360;8.726;2022-12-04T13:40:57;99238.16;;;2.06;100.00
27984;BME280;15317;50.360;8.726;2022-12-04T13:45:06;99232.69;;;2.08;100.00
27984;BME280;15317;50.360;8.726;2022-12-04T13:49:23;99246.44;;;2.03;100.00
27984;BME280;15317;50.360;8.726;2022-12-04T13:53:30;99236.13;;;2.10;100.00
27984;BME280;15317;50.360;8.726;2022-12-04T13:57:33;99231.94;;;2.06;100.00
27984;BME280;15317;50.360;8.726;2022-12-04T14:01:39;99221.31;;;2.17;100.00
27984;BME280;15317;50.360;8.726;2022-12-04T14:05:42;99219.53;;;2.05;100.00
27984;BME280;15317;50.360;8.726;2022-12-04T14:09:48;99226.81;;;2.03;100.00
27984;BME280;15317;50.360;8.726;2022-12-04T14:13:54;99229.81;;;2.11;100.00
27984;BME280;15317;50.360;8.726;2022-12-04T14:18:02;99234.63;;;2.06;100.00
27984;BME280;15317;50.360;8.726;2022-12-04T14:22:24;99215.94;;;2.17;100.00
27984;BME280;15317;50.360;8.726;2022-12-04T14:26:28;99204.47;;;2.15;100.00
27984;BME280;15317;50.360;8.726;2022-12-04T14:30:34;99201.75;;;2.04;100.00
27984;BME280;15317;50.360;8.726;2022-12-04T14:34:39;99201.50;;;2.07;100.00
27984;BME280;15317;50.360;8.726;2022-12-04T14:38:43;99195.44;;;2.05;100.00
27984;BME280;15317;50.360;8.726;2022-12-04T14:42:47;99209.34;;;2.10;100.00
27984;BME280;15317;50.360;8.726;2022-12-04T14:46:51;99211.03;;;2.11;100.00
27984;BME280;15317;50.360;8.726;2022-12-04T14:51:04;99221.22;;;2.06;100.00
27984;BME280;15317;50.360;8.726;2022-12-04T14:55:16;99224.34;;;1.99;100.00
27984;BME280;15317;50.360;8.726;2022-12-04T14:59:23;99231.22;;;2.04;100.00
27984;BME280;15317;50.360;8.726;2022-12-04T15:03:30;99223.91;;;2.06;100.00
27984;BME280;15317;50.360;8.726;2022-12-04T15:07:44;99236.78;;;2.01;100.00
27984;BME280;15317;50.360;8.726;2022-12-04T15:11:49;99233.81;;;1.92;100.00
27984;BME280;15317;50.360;8.726;2022-12-04T15:16:15;99235.81;;;2.02;100.00
27984;BME280;15317;50.360;8.726;2022-12-04T15:20:18;99237.34;;;1.93;100.00
27984;BME280;15317;50.360;8.726;2022-12-04T15:24:23;99240.97;;;2.05;100.00
27984;BME280;15317;50.360;8.726;2022-12-04T15:28:28;99232.75;;;1.95;100.00
27984;BME280;15317;50.360;8.726;2022-12-04T15:32:32;99236.47;;;1.92;100.00
27984;BME280;15317;50.360;8.726;2022-12-04T15:36:43;99242.59;;;1.94;100.00
27984;BME280;15317;50.360;8.726;2022-12-04T15:40:54;99242.38;;;1.97;100.00
27984;BME280;15317;50.360;8.726;2022-12-04T15:44:57;99245.47;;;1.91;100.00
27984;BME280;15317;50.360;8.726;2022-12-04T15:49:05;99247.94;;;1.94;100.00
27984;BME280;15317;50.360;8.726;2022-12-04T15:53:15;99250.00;;;1.91;100.00
27984;BME280;15317;50.360;8.726;2022-12-04T15:57:25;99252.91;;;1.88;100.00
27984;BME280;15317;50.360;8.726;2022-12-04T16:01:37;99262.09;;;1.96;100.00
27984;BME280;15317;50.360;8.726;2022-12-04T16:05:40;99259.31;;;1.85;100.00
27984;BME280;15317;50.360;8.726;2022-12-04T16:09:50;99266.38;;;1.86;100.00
27984;BME280;15317;50.360;8.726;2022-12-04T16:14:04;99258.78;;;1.93;100.00
27984;BME280;15317;50.360;8.726;2022-12-04T16:18:14;99255.06;;;1.83;100.00
27984;BME280;15317;50.360;8.726;2022-12-04T16:22:19;99264.91;;;1.82;100.00
27984;BME280;15317;50.360;8.726;2022-12-04T16:26:23;99252.03;;;1.87;100.00
27984;BME280;15317;50.360;8.726;2022-12-04T16:30:27;99247.53;;;1.88;100.00
27984;BME280;15317;50.360;8.726;2022-12-04T16:34:30;99254.19;;;1.82;100.00
27984;BME280;15317;50.360;8.726;2022-12-04T16:38:33;99261.03;;;1.86;100.00
27984;BME280;15317;50.360;8.726;2022-12-04T16:42:35;99253.81;;;1.99;100.00
27984;BME280;15317;50.360;8.726;2022-12-04T16:46:38;99252.25;;;1.84;100.00
27984;BME280;15317;50.360;8.726;2022-12-04T16:50:41;99249.91;;;1.80;100.00
27984;BME280;15317;50.360;8.726;2022-12-04T16:54:44;99244.22;;;1.84;100.00
27984;BME280;15317;50.360;8.726;2022-12-04T16:58:46;99241.78;;;1.81;100.00
27984;BME280;15317;50.360;8.726;2022-12-04T17:02:50;99240.06;;;1.80;100.00
27984;BME280;15317;50.360;8.726;2022-12-04T17:06:52;99241.44;;;1.86;100.00
27984;BME280;15317;50.360;8.726;2022-12-04T17:10:54;99244.22;;;1.84;100.00
27984;BME280;15317;50.360;8.726;2022-12-04T17:14:57;99235.47;;;1.82;100.00
27984;BME280;15317;50.360;8.726;2022-12-04T17:19:00;99234.50;;;1.83;100.00
27984;BME280;15317;50.360;8.726;2022-12-04T17:23:02;99241.31;;;1.87;100.00
27984;BME280;15317;50.360;8.726;2022-12-04T17:27:04;99239.41;;;1.89;100.00
27984;BME280;15317;50.360;8.726;2022-12-04T17:31:12;99236.19;;;1.84;100.00
27984;BME280;15317;50.360;8.726;2022-12-04T17:35:16;99237.19;;;1.83;100.00
27984;BME280;15317;50.360;8.726;2022-12-04T17:39:18;99234.38;;;1.85;100.00
27984;BME280;15317;50.360;8.726;2022-12-04T17:43:20;99231.81;;;1.83;100.00
27984;BME280;15317;50.360;8.726;2022-12-04T17:47:22;99224.81;;;1.93;100.00
27984;BME280;15317;50.360;8.726;2022-12-04T17:51:25;99219.91;;;1.87;100.00
27984;BME280;15317;50.360;8.726;2022-12-04T17:55:28;99221.81;;;1.85;100.00
27984;BME280;15317;50.360;8.726;2022-12-04T17:59:30;99227.19;;;1.85;100.00
27984;BME280;15317;50.360;8.726;2022-12-04T18:03:33;99227.94;;;1.87;100.00
27984;BME280;15317;50.360;8.726;2022-12-04T18:07:37;99211.13;;;1.85;100.00
27984;BME280;15317;50.360;8.726;2022-12-04T18:11:41;99215.84;;;1.82;100.00
27984;BME280;15317;50.360;8.726;2022-12-04T18:15:43;99215.31;;;1.89;100.00
27984;BME280;15317;50.360;8.726;2022-12-04T18:19:45;99217.72;;;1.92;100.00
27984;BME280;15317;50.360;8.726;2022-12-04T18:23:49;99227.84;;;1.89;100.00
27984;BME280;15317;50.360;8.726;2022-12-04T18:27:51;99221.63;;;1.88;100.00
27984;BME280;15317;50.360;8.726;2022-12-04T18:31:53;99218.94;;;1.88;100.00
27984;BME280;15317;50.360;8.726;2022-12-04T18:35:56;99221.91;;;1.96;100.00
27984;BME280;15317;50.360;8.726;2022-12-04T18:40:00;99223.22;;;1.91;100.00
27984;BME280;15317;50.360;8.726;2022-12-04T18:44:03;99213.88;;;1.96;100.00
27984;BME280;15317;50.360;8.726;2022-12-04T18:48:05;99210.56;;;1.93;100.00
27984;BME280;15317;50.360;8.726;2022-12-04T18:52:07;99205.66;;;1.87;100.00
27984;BME280;15317;50.360;8.726;2022-12-04T18:56:10;99207.44;;;1.99;100.00
27984;BME280;15317;50.360;8.726;2022-12-04T19:00:13;99189.88;;;1.95;100.00
27984;BME280;15317;50.360;8.726;2022-12-04T19:04:17;99189.25;;;1.91;100.00
27984;BME280;15317;50.360;8.726;2022-12-04T19:08:20;99199.75;;;1.94;100.00
27984;BME280;15317;50.360;8.726;2022-12-04T19:12:23;99200.09;;;1.90;100.00
27984;BME280;15317;50.360;8.726;2022-12-04T19:16:26;99219.34;;;1.95;100.00
27984;BME280;15317;50.360;8.726;2022-12-04T19:20:28;99223.94;;;1.93;100.00
27984;BME280;15317;50.360;8.726;2022-12-04T19:24:30;99237.22;;;1.94;100.00
27984;BME280;15317;50.360;8.726;2022-12-04T19:28:34;99239.16;;;1.92;100.00
27984;BME280;15317;50.360;8.726;2022-12-04T19:32:36;99235.31;;;1.96;100.00
27984;BME280;15317;50.360;8.726;2022-12-04T19:36:38;99240.97;;;2.05;100.00
27984;BME280;15317;50.360;8.726;2022-12-04T19:40:40;99249.66;;;1.95;100.00
27984;BME280;15317;50.360;8.726;2022-12-04T19:44:44;99244.94;;;1.99;100.00
27984;BME280;15317;50.360;8.726;2022-12-04T19:48:47;99247.28;;;2.04;100.00
27984;BME280;15317;50.360;8.726;2022-12-04T19:52:49;99243.34;;;1.96;100.00
27984;BME280;15317;50.360;8.726;2022-12-04T19:56:51;99240.22;;;2.03;100.00
27984;BME280;15317;50.360;8.726;2022-12-04T20:00:55;99245.97;;;2.09;100.00
27984;BME280;15317;50.360;8.726;2022-12-04T20:04:57;99252.66;;;2.04;100.00
27984;BME280;15317;50.360;8.726;2022-12-04T20:09:00;99261.66;;;2.03;100.00
27984;BME280;15317;50.360;8.726;2022-12-04T20:13:02;99256.03;;;2.06;100.00
27984;BME280;15317;50.360;8.726;2022-12-04T20:17:07;99243.66;;;2.05;100.00
27984;BME280;15317;50.360;8.726;2022-12-04T20:21:10;99238.91;;;2.08;100.00
27984;BME280;15317;50.360;8.726;2022-12-04T20:25:12;99245.78;;;1.99;100.00
27984;BME280;15317;50.360;8.726;2022-12-04T20:29:15;99244.72;;;2.02;100.00
27984;BME280;15317;50.360;8.726;2022-12-04T20:33:20;99234.44;;;1.96;100.00
27984;BME280;15317;50.360;8.726;2022-12-04T20:37:22;99244.22;;;1.97;100.00
27984;BME280;15317;50.360;8.726;2022-12-04T20:41:25;99243.34;;;1.96;100.00
27984;BME280;15317;50.360;8.726;2022-12-04T20:45:28;99238.59;;;2.00;100.00
27984;BME280;15317;50.360;8.726;2022-12-04T20:49:32;99254.56;;;2.02;100.00
27984;BME280;15317;50.360;8.726;2022-12-04T20:53:34;99255.38;;;1.91;100.00
27984;BME280;15317;50.360;8.726;2022-12-04T20:57:36;99272.38;;;2.03;100.00
27984;BME280;15317;50.360;8.726;2022-12-04T21:01:40;99279.88;;;1.97;100.00
27984;BME280;15317;50.360;8.726;2022-12-04T21:05:48;99289.31;;;1.90;100.00
27984;BME280;15317;50.360;8.726;2022-12-04T21:09:50;99291.41;;;1.98;100.00
27984;BME280;15317;50.360;8.726;2022-12-04T21:13:54;99289.75;;;1.97;100.00
27984;BME280;15317;50.360;8.726;2022-12-04T21:18:13;99285.66;;;1.91;100.00
27984;BME280;15317;50.360;8.726;2022-12-04T21:22:18;99282.16;;;1.91;100.00
27984;BME280;15317;50.360;8.726;2022-12-04T21:26:20;99282.25;;;1.89;100.00
27984;BME280;15317;50.360;8.726;2022-12-04T21:30:22;99283.41;;;1.85;100.00
27984;BME280;15317;50.360;8.726;2022-12-04T21:34:24;99285.03;;;1.88;100.00
27984;BME280;15317;50.360;8.726;2022-12-04T21:38:31;99287.06;;;1.84;100.00
27984;BME280;15317;50.360;8.726;2022-12-04T21:42:33;99288.91;;;1.84;100.00
27984;BME280;15317;50.360;8.726;2022-12-04T21:46:35;99297.91;;;1.83;100.00